• Join FlightAware (Why Join?)
  • Login
  • US Flag 
01:39PM EDT


 

Airport Tracker/Info


-or-


 

Live Flight TrackerFlight Track Log ✈ AAY804 ✈ 13-Jul-2014 ✈ KPIE - KCHA

Flight Track Log - Related Links

Times and Time Zones

All times are in EDT time to prevent confusion due to time zone crossing. See the AAY804 flight status page for this flight to view local times or setup timezone preferences in your user account.

Time Position Orientation Groundspeed Altitude Reporting Facility
EDT Latitude Longitude Course Direction KTS MPH feet Rate Location/Type
06:49AM 27.9000 -82.6833 180° South 164 189 900  Level Tampa TRACON
06:50AM 27.8333 -82.6833 180° South 218 251 3,100 2,580 Climbing Tampa TRACON
06:52AM 27.8639 -82.7564 295° West 221 254 7,700 2,880 Climbing Jacksonville Center
06:53AM 27.9392 -82.7681 352° North 186 214 10,400 2,100 Climbing Jacksonville Center
06:54AM 28.0183 -82.7750 356° North 236 272 11,900 1,560 Climbing Jacksonville Center
06:55AM 28.1144 -82.8078 343° North 303 349 13,600 2,100 Climbing Jacksonville Center
06:56AM 28.2189 -82.8408 344° North 348 400 16,200 2,340 Climbing Jacksonville Center
06:57AM 28.3189 -82.8736 344° North 367 422 18,300 1,860 Climbing Jacksonville Center
06:58AM 28.4233 -82.9114 342° North 380 437 20,000 1,740 Climbing Jacksonville Center
06:59AM 28.5339 -82.9469 344° North 391 450 21,800 1,560 Climbing Jacksonville Center
07:00AM 28.6319 -82.9753 346° North 398 458 23,200 1,440 Climbing Jacksonville Center
07:01AM 28.7447 -83.0158 343° North 412 474 24,700 1,380 Climbing Jacksonville Center
07:02AM 28.8594 -83.0514 345° North 418 481 26,000 1,140 Climbing Jacksonville Center
07:03AM 28.9761 -83.0825 347° North 423 487 27,000 480 Climbing Jacksonville Center
07:04AM 29.0972 -83.1161 346° North 429 494 27,000  Level Jacksonville Center
07:05AM 29.2183 -83.1472 347° North 435 501 27,000 360 Level Jacksonville Center
07:06AM 29.3372 -83.1831 345° North 435 501 27,800 1,140 Climbing Jacksonville Center
07:07AM 29.4561 -83.2169 346° North 435 501 29,300 1,200 Climbing Jacksonville Center
07:08AM 29.5833 -83.2531 346° North 452 520 30,200 1,320 Climbing Jacksonville Center
07:09AM 29.7083 -83.2894 346° North 452 520 32,000 1,560 Climbing Jacksonville Center
07:10AM 29.8294 -83.3211 347° North 452 520 33,400 1,260 Climbing Jacksonville Center
07:11AM 29.9631 -83.3600 346° North 452 520 34,600 1,080 Climbing Jacksonville Center
07:12AM 30.0839 -83.3942 346° North 447 514 35,600 660 Climbing Jacksonville Center
07:13AM 30.2047 -83.4261 347° North 447 514 36,000 180 Climbing Jacksonville Center
07:14AM 30.3258 -83.4606 346° North 447 514 36,000  Level Jacksonville Center
07:15AM 30.4447 -83.4925 347° North 447 514 36,000 -60 Level Jacksonville Center
07:16AM 30.5636 -83.5272 346° North 442 509 35,900 -60 Descending Jacksonville Center
07:17AM 30.6822 -83.5617 346° North 434 499 35,900  Level Jacksonville Center
07:18AM 30.7844 -83.5914 346° North 425 489 36,000  Climbing Jacksonville Center
07:19AM 31.0031 -83.6561 346° North 437 503 36,000  Level Atlanta Center
07:20AM 31.1222 -83.6919 346° North 437 503 36,000  Level Atlanta Center
07:21AM 31.2433 -83.7256 347° North 437 503 36,000  Level Atlanta Center
07:22AM 31.3622 -83.7617 345° North 432 497 36,000  Level Atlanta Center
07:23AM 31.4814 -83.7953 346° North 432 497 36,000  Level Atlanta Center
07:24AM 31.6108 -83.8389 344° North 432 497 36,000  Level Atlanta Center
07:25AM 31.7319 -83.8656 349° North 438 504 36,000  Level Atlanta Center
07:26AM 31.8592 -83.9067 345° North 454 522 36,000 -120 Level Atlanta Center
07:27AM 31.9742 -83.9408 346° North 441 507 35,800 -600 Descending Atlanta Center
07:28AM 32.0908 -83.9728 347° North 434 499 34,900 -960 Descending Atlanta Center
07:29AM 32.2119 -84.0094 346° North 434 499 33,900 -1,020 Descending Atlanta Center
07:30AM 32.3331 -84.0436 347° North 434 499 32,900 -960 Descending Atlanta Center
07:31AM 32.4564 -84.0806 346° North 434 499 32,000 -480 Descending Atlanta Center
07:32AM 32.5753 -84.1178 345° North 434 499 32,000  Level Atlanta Center
07:33AM 32.6942 -84.1547 345° North 434 499 32,000  Level Atlanta Center
07:34AM 32.8153 -84.1922 345° North 434 499 32,000  Level Atlanta Center
07:35AM 32.9236 -84.2219 347° North 434 499 32,000  Level Atlanta Center
07:36AM 33.0425 -84.2594 345° North 434 499 32,000 -300 Level Atlanta Center
07:37AM 33.1594 -84.2919 347° North 434 499 31,400 -840 Descending Atlanta Center
07:38AM 33.2783 -84.3294 345° North 434 499 30,400 -1,020 Descending Atlanta Center
07:39AM 33.3931 -84.3672 345° North 434 499 29,400 -720 Descending Atlanta Center
07:40AM 33.5100 -84.4000 347° North 429 494 29,000 -240 Descending Atlanta Center
07:41AM 33.6203 -84.4356 345° North 429 494 29,000 -1,740 Level Atlanta Center
07:47AM 34.2191 -84.7232 337° Northwest 384 442 18,100 -2,040 Descending FlightAware ADS-B (KDZJ)
07:47AM 34.2786 -84.7528 337° Northwest 401 461 16,800 -1,980 Descending Atlanta Center
07:48AM 34.3700 -84.7989 337° Northwest 383 441 14,900 -2,220 Descending Atlanta Center
07:49AM 34.4594 -84.8425 338° Northwest 364 419 12,400 -1,980 Descending Atlanta Center
07:50AM 34.5428 -84.8836 338° Northwest 337 388 11,000 -840 Descending Atlanta Center
07:51AM 34.6258 -84.9247 338° Northwest 330 380 10,800 -600 Descending Atlanta Center
07:52AM 34.6944 -84.9583 338° Northwest 308 354 9,800 -1,680 Descending Atlanta Center
07:53AM 34.7714 -84.9922 340° North 297 342 7,500 -2,040 Descending Atlanta Center
07:54AM 34.8464 -85.0131 347° North 284 327 5,800 -1,500 Descending Atlanta Center
07:55AM 34.9172 -85.0292 349° North 278 320 4,600 -900 Descending Atlanta Center
07:56AM 34.9819 -85.0478 347° North 258 297 4,000 -840 Descending Atlanta Center
07:57AM 35.0464 -85.0636 349° North 240 276 3,000 -1,020 Descending Atlanta Center
07:59AM 35.0333 -85.2000 331° Northwest  Level FlightAware Approximate
08:06AM 35.0352 -85.2036 331° Northwest  Level Estimated
08:07AM 35.0333 -85.2000 331° Northwest  Level FlightAware Approximate
08:08AM 35.0352 -85.2036 331° Northwest  Level Estimated
08:09AM 35.0333 -85.2000 331° Northwest  Level FlightAware Approximate
08:10AM 35.0352 -85.2036 331° Northwest  Level Estimated
08:11AM 35.0333 -85.2000 331° Northwest  Level FlightAware Approximate
08:12AM 35.0352 -85.2036 331° Northwest  Level Estimated
08:13AM 35.0333 -85.2000 331° Northwest  Level FlightAware Approximate